sensor_id;sensor_type;location;lat;lon;timestamp;temperature;humidity
76855;DHT22;66343;44.588;33.450;2023-06-19T00:02:02;23.56;66.81
76855;DHT22;66343;44.588;33.450;2023-06-19T00:04:32;23.51;67.43
76855;DHT22;66343;44.588;33.450;2023-06-19T00:07:01;23.47;67.78
76855;DHT22;66343;44.588;33.450;2023-06-19T00:09:33;23.46;68.47
76855;DHT22;66343;44.588;33.450;2023-06-19T00:12:05;23.45;68.33
76855;DHT22;66343;44.588;33.450;2023-06-19T00:14:39;23.37;68.89
76855;DHT22;66343;44.588;33.450;2023-06-19T00:17:08;23.28;69.28
76855;DHT22;66343;44.588;33.450;2023-06-19T00:19:37;23.27;69.13
76855;DHT22;66343;44.588;33.450;2023-06-19T00:22:09;23.27;69.05
76855;DHT22;66343;44.588;33.450;2023-06-19T00:24:39;23.25;69.40
76855;DHT22;66343;44.588;33.450;2023-06-19T00:27:11;23.22;69.33
76855;DHT22;66343;44.588;33.450;2023-06-19T00:29:46;23.22;69.27
76855;DHT22;66343;44.588;33.450;2023-06-19T00:32:15;23.21;69.35
76855;DHT22;66343;44.588;33.450;2023-06-19T00:34:49;23.22;69.16
76855;DHT22;66343;44.588;33.450;2023-06-19T00:37:18;23.20;69.27
76855;DHT22;66343;44.588;33.450;2023-06-19T00:39:47;23.16;69.17
76855;DHT22;66343;44.588;33.450;2023-06-19T00:42:17;23.16;69.34
76855;DHT22;66343;44.588;33.450;2023-06-19T00:44:46;23.10;69.71
76855;DHT22;66343;44.588;33.450;2023-06-19T00:47:21;23.09;69.96
76855;DHT22;66343;44.588;33.450;2023-06-19T00:49:51;23.07;70.00
76855;DHT22;66343;44.588;33.450;2023-06-19T00:52:20;23.06;70.26
76855;DHT22;66343;44.588;33.450;2023-06-19T00:54:50;23.01;70.81
76855;DHT22;66343;44.588;33.450;2023-06-19T00:57:22;22.94;71.57
76855;DHT22;66343;44.588;33.450;2023-06-19T00:59:55;22.86;72.04
76855;DHT22;66343;44.588;33.450;2023-06-19T01:02:28;22.75;72.54
76855;DHT22;66343;44.588;33.450;2023-06-19T01:04:58;22.78;72.26
76855;DHT22;66343;44.588;33.450;2023-06-19T01:10:28;22.85;71.98
76855;DHT22;66343;44.588;33.450;2023-06-19T01:13:13;22.77;72.34
76855;DHT22;66343;44.588;33.450;2023-06-19T01:15:46;22.79;72.37
76855;DHT22;66343;44.588;33.450;2023-06-19T01:18:18;22.79;72.60
76855;DHT22;66343;44.588;33.450;2023-06-19T01:20:49;22.77;72.70
76855;DHT22;66343;44.588;33.450;2023-06-19T01:23:18;22.78;72.66
76855;DHT22;66343;44.588;33.450;2023-06-19T01:25:50;22.77;72.62
76855;DHT22;66343;44.588;33.450;2023-06-19T01:28:19;22.73;72.68
76855;DHT22;66343;44.588;33.450;2023-06-19T01:30:49;22.73;72.64
76855;DHT22;66343;44.588;33.450;2023-06-19T01:33:26;22.71;72.61
76855;DHT22;66343;44.588;33.450;2023-06-19T01:35:59;22.78;71.98
76855;DHT22;66343;44.588;33.450;2023-06-19T01:38:32;22.77;71.61
76855;DHT22;66343;44.588;33.450;2023-06-19T01:41:06;22.72;71.57
76855;DHT22;66343;44.588;33.450;2023-06-19T01:43:39;22.68;71.99
76855;DHT22;66343;44.588;33.450;2023-06-19T01:46:12;22.58;71.93
76855;DHT22;66343;44.588;33.450;2023-06-19T01:48:49;22.51;71.60
76855;DHT22;66343;44.588;33.450;2023-06-19T01:51:18;22.44;71.52
76855;DHT22;66343;44.588;33.450;2023-06-19T01:53:48;22.48;71.25
76855;DHT22;66343;44.588;33.450;2023-06-19T01:56:20;22.46;71.12
76855;DHT22;66343;44.588;33.450;2023-06-19T01:58:53;22.37;71.22
76855;DHT22;66343;44.588;33.450;2023-06-19T02:01:24;22.34;71.12
76855;DHT22;66343;44.588;33.450;2023-06-19T02:03:54;22.35;71.26
76855;DHT22;66343;44.588;33.450;2023-06-19T02:06:24;22.39;70.94
76855;DHT22;66343;44.588;33.450;2023-06-19T02:08:54;22.46;70.77
76855;DHT22;66343;44.588;33.450;2023-06-19T02:11:23;22.44;70.67
76855;DHT22;66343;44.588;33.450;2023-06-19T02:13:55;22.47;70.55
76855;DHT22;66343;44.588;33.450;2023-06-19T02:16:24;22.48;70.43
76855;DHT22;66343;44.588;33.450;2023-06-19T02:18:54;22.48;70.31
76855;DHT22;66343;44.588;33.450;2023-06-19T02:21:24;22.47;70.08
76855;DHT22;66343;44.588;33.450;2023-06-19T02:23:56;22.47;70.09
76855;DHT22;66343;44.588;33.450;2023-06-19T02:26:27;22.46;70.58
76855;DHT22;66343;44.588;33.450;2023-06-19T02:28:58;22.47;70.45
76855;DHT22;66343;44.588;33.450;2023-06-19T02:31:27;22.47;70.86
76855;DHT22;66343;44.588;33.450;2023-06-19T02:33:59;22.25;71.32
76855;DHT22;66343;44.588;33.450;2023-06-19T02:36:30;22.17;71.58
76855;DHT22;66343;44.588;33.450;2023-06-19T02:39:05;22.19;71.60
76855;DHT22;66343;44.588;33.450;2023-06-19T02:41:35;22.18;71.94
76855;DHT22;66343;44.588;33.450;2023-06-19T02:44:05;22.21;71.72
76855;DHT22;66343;44.588;33.450;2023-06-19T02:46:35;22.21;71.96
76855;DHT22;66343;44.588;33.450;2023-06-19T02:49:05;22.13;72.45
76855;DHT22;66343;44.588;33.450;2023-06-19T02:51:35;22.21;72.92
76855;DHT22;66343;44.588;33.450;2023-06-19T02:54:09;22.20;72.61
76855;DHT22;66343;44.588;33.450;2023-06-19T02:56:41;22.17;73.29
76855;DHT22;66343;44.588;33.450;2023-06-19T02:59:13;22.16;73.16
76855;DHT22;66343;44.588;33.450;2023-06-19T03:01:42;22.16;73.27
76855;DHT22;66343;44.588;33.450;2023-06-19T03:04:14;22.17;73.24
76855;DHT22;66343;44.588;33.450;2023-06-19T03:06:44;22.10;73.38
76855;DHT22;66343;44.588;33.450;2023-06-19T03:09:13;22.19;73.34
76855;DHT22;66343;44.588;33.450;2023-06-19T03:11:43;22.18;72.80
76855;DHT22;66343;44.588;33.450;2023-06-19T03:14:13;22.25;73.20
76855;DHT22;66343;44.588;33.450;2023-06-19T03:16:43;22.33;72.30
76855;DHT22;66343;44.588;33.450;2023-06-19T03:19:13;22.34;72.40
76855;DHT22;66343;44.588;33.450;2023-06-19T03:21:45;22.41;71.88
76855;DHT22;66343;44.588;33.450;2023-06-19T03:24:15;22.43;71.27
76855;DHT22;66343;44.588;33.450;2023-06-19T03:26:49;22.50;71.15
76855;DHT22;66343;44.588;33.450;2023-06-19T03:29:19;22.53;71.06
76855;DHT22;66343;44.588;33.450;2023-06-19T03:31:56;22.54;70.93
76855;DHT22;66343;44.588;33.450;2023-06-19T03:34:31;22.57;70.61
76855;DHT22;66343;44.588;33.450;2023-06-19T03:37:07;22.60;70.45
76855;DHT22;66343;44.588;33.450;2023-06-19T03:39:36;22.66;69.37
76855;DHT22;66343;44.588;33.450;2023-06-19T03:42:09;22.73;69.10
76855;DHT22;66343;44.588;33.450;2023-06-19T03:44:39;22.81;68.75
76855;DHT22;66343;44.588;33.450;2023-06-19T03:47:09;22.87;69.00
76855;DHT22;66343;44.588;33.450;2023-06-19T03:49:38;22.93;68.29
76855;DHT22;66343;44.588;33.450;2023-06-19T03:52:10;22.96;68.39
76855;DHT22;66343;44.588;33.450;2023-06-19T03:54:40;23.02;68.07
76855;DHT22;66343;44.588;33.450;2023-06-19T03:57:09;23.08;67.71
76855;DHT22;66343;44.588;33.450;2023-06-19T03:59:39;23.15;67.56
76855;DHT22;66343;44.588;33.450;2023-06-19T04:02:16;23.18;67.09
76855;DHT22;66343;44.588;33.450;2023-06-19T04:04:47;23.18;66.75
76855;DHT22;66343;44.588;33.450;2023-06-19T04:07:16;23.22;66.32
76855;DHT22;66343;44.588;33.450;2023-06-19T04:09:48;23.27;66.24
76855;DHT22;66343;44.588;33.450;2023-06-19T04:12:19;23.36;66.36
76855;DHT22;66343;44.588;33.450;2023-06-19T04:14:48;23.40;66.63
76855;DHT22;66343;44.588;33.450;2023-06-19T04:17:20;23.45;66.17
76855;DHT22;66343;44.588;33.450;2023-06-19T04:19:50;23.53;65.85
76855;DHT22;66343;44.588;33.450;2023-06-19T04:22:22;23.59;65.61
76855;DHT22;66343;44.588;33.450;2023-06-19T04:25:22;23.66;65.43
76855;DHT22;66343;44.588;33.450;2023-06-19T09:31:34;24.76;51.95
76855;DHT22;66343;44.588;33.450;2023-06-19T09:34:04;24.49;58.06
76855;DHT22;66343;44.588;33.450;2023-06-19T09:36:37;24.27;63.45
76855;DHT22;66343;44.588;33.450;2023-06-19T09:39:10;23.94;64.79
76855;DHT22;66343;44.588;33.450;2023-06-19T09:41:43;23.46;63.33
76855;DHT22;66343;44.588;33.450;2023-06-19T09:44:46;22.65;66.94
76855;DHT22;66343;44.588;33.450;2023-06-19T09:47:22;22.34;68.91
76855;DHT22;66343;44.588;33.450;2023-06-19T09:49:55;22.24;68.26
76855;DHT22;66343;44.588;33.450;2023-06-19T09:52:27;22.11;69.34
76855;DHT22;66343;44.588;33.450;2023-06-19T09:55:12;22.10;68.75
76855;DHT22;66343;44.588;33.450;2023-06-19T09:57:44;22.11;70.35
76855;DHT22;66343;44.588;33.450;2023-06-19T10:00:37;22.10;69.22
76855;DHT22;66343;44.588;33.450;2023-06-19T10:03:14;22.07;70.97
76855;DHT22;66343;44.588;33.450;2023-06-19T10:05:44;22.03;71.22
76855;DHT22;66343;44.588;33.450;2023-06-19T10:08:13;21.96;70.43
76855;DHT22;66343;44.588;33.450;2023-06-19T10:10:47;21.85;70.00
76855;DHT22;66343;44.588;33.450;2023-06-19T10:13:17;21.67;70.10
76855;DHT22;66343;44.588;33.450;2023-06-19T10:15:47;21.61;72.48
76855;DHT22;66343;44.588;33.450;2023-06-19T10:18:21;21.75;72.95
76855;DHT22;66343;44.588;33.450;2023-06-19T10:20:57;21.78;73.06
76855;DHT22;66343;44.588;33.450;2023-06-19T10:23:27;21.77;73.83
76855;DHT22;66343;44.588;33.450;2023-06-19T10:26:00;21.77;74.72
76855;DHT22;66343;44.588;33.450;2023-06-19T10:28:32;21.62;75.76
76855;DHT22;66343;44.588;33.450;2023-06-19T10:31:07;21.48;77.15
76855;DHT22;66343;44.588;33.450;2023-06-19T10:33:39;21.38;77.77
76855;DHT22;66343;44.588;33.450;2023-06-19T10:36:15;21.37;78.05
76855;DHT22;66343;44.588;33.450;2023-06-19T10:38:48;21.38;78.63
76855;DHT22;66343;44.588;33.450;2023-06-19T10:41:24;21.33;77.91
76855;DHT22;66343;44.588;33.450;2023-06-19T10:44:01;21.32;76.82
76855;DHT22;66343;44.588;33.450;2023-06-19T10:46:33;21.30;78.56
76855;DHT22;66343;44.588;33.450;2023-06-19T10:49:06;21.24;77.79
76855;DHT22;66343;44.588;33.450;2023-06-19T10:51:41;21.20;78.69
76855;DHT22;66343;44.588;33.450;2023-06-19T10:54:13;21.17;79.13
76855;DHT22;66343;44.588;33.450;2023-06-19T10:56:44;21.16;79.56
76855;DHT22;66343;44.588;33.450;2023-06-19T10:59:17;21.16;78.86
76855;DHT22;66343;44.588;33.450;2023-06-19T11:01:48;21.19;78.34
76855;DHT22;66343;44.588;33.450;2023-06-19T11:04:20;21.23;78.39
76855;DHT22;66343;44.588;33.450;2023-06-19T11:07:05;21.34;78.30
76855;DHT22;66343;44.588;33.450;2023-06-19T11:12:23;21.73;76.44
76855;DHT22;66343;44.588;33.450;2023-06-19T11:14:53;21.82;73.55
76855;DHT22;66343;44.588;33.450;2023-06-19T11:17:26;21.94;74.51
76855;DHT22;66343;44.588;33.450;2023-06-19T11:20:01;21.98;74.31
76855;DHT22;66343;44.588;33.450;2023-06-19T11:22:39;22.07;72.96
76855;DHT22;66343;44.588;33.450;2023-06-19T11:25:10;22.13;72.10
76855;DHT22;66343;44.588;33.450;2023-06-19T11:27:47;22.24;72.26
76855;DHT22;66343;44.588;33.450;2023-06-19T11:30:30;22.36;72.52
76855;DHT22;66343;44.588;33.450;2023-06-19T11:33:01;22.42;73.49
76855;DHT22;66343;44.588;33.450;2023-06-19T11:35:36;22.49;70.81
76855;DHT22;66343;44.588;33.450;2023-06-19T11:38:07;22.57;71.42
76855;DHT22;66343;44.588;33.450;2023-06-19T11:40:58;22.65;73.02
76855;DHT22;66343;44.588;33.450;2023-06-19T11:43:31;22.56;73.62
76855;DHT22;66343;44.588;33.450;2023-06-19T11:46:12;22.43;73.52
76855;DHT22;66343;44.588;33.450;2023-06-19T11:48:46;22.49;74.77
76855;DHT22;66343;44.588;33.450;2023-06-19T11:51:40;22.58;74.02
76855;DHT22;66343;44.588;33.450;2023-06-19T11:54:14;22.52;71.67
76855;DHT22;66343;44.588;33.450;2023-06-19T11:56:44;22.55;74.29
76855;DHT22;66343;44.588;33.450;2023-06-19T11:59:15;22.62;72.30
76855;DHT22;66343;44.588;33.450;2023-06-19T12:01:44;22.62;72.44
76855;DHT22;66343;44.588;33.450;2023-06-19T12:04:16;22.68;72.35
76855;DHT22;66343;44.588;33.450;2023-06-19T12:06:49;22.43;72.96
76855;DHT22;66343;44.588;33.450;2023-06-19T12:09:24;22.39;73.32
76855;DHT22;66343;44.588;33.450;2023-06-19T12:11:54;22.51;73.61
76855;DHT22;66343;44.588;33.450;2023-06-19T12:14:28;22.62;74.91
76855;DHT22;66343;44.588;33.450;2023-06-19T12:16:58;22.50;76.13
76855;DHT22;66343;44.588;33.450;2023-06-19T12:19:28;22.57;73.35
76855;DHT22;66343;44.588;33.450;2023-06-19T12:22:00;22.65;73.70
76855;DHT22;66343;44.588;33.450;2023-06-19T12:24:30;22.77;74.88
76855;DHT22;66343;44.588;33.450;2023-06-19T12:27:01;22.81;73.93
76855;DHT22;66343;44.588;33.450;2023-06-19T12:29:31;22.78;72.95
76855;DHT22;66343;44.588;33.450;2023-06-19T12:32:02;22.75;73.22
76855;DHT22;66343;44.588;33.450;2023-06-19T12:34:32;22.87;73.45
76855;DHT22;66343;44.588;33.450;2023-06-19T12:37:06;22.92;71.08
76855;DHT22;66343;44.588;33.450;2023-06-19T12:39:36;22.94;71.50
76855;DHT22;66343;44.588;33.450;2023-06-19T12:42:10;22.97;70.46
76855;DHT22;66343;44.588;33.450;2023-06-19T12:44:44;22.95;71.13
76855;DHT22;66343;44.588;33.450;2023-06-19T12:47:14;23.02;72.72
76855;DHT22;66343;44.588;33.450;2023-06-19T12:49:48;23.12;72.36
76855;DHT22;66343;44.588;33.450;2023-06-19T12:52:21;23.23;72.83
76855;DHT22;66343;44.588;33.450;2023-06-19T12:54:53;23.25;70.92
76855;DHT22;66343;44.588;33.450;2023-06-19T12:57:28;23.30;71.20
76855;DHT22;66343;44.588;33.450;2023-06-19T13:00:02;23.41;71.15
76855;DHT22;66343;44.588;33.450;2023-06-19T13:02:39;23.47;70.38
76855;DHT22;66343;44.588;33.450;2023-06-19T13:05:12;23.50;69.47
76855;DHT22;66343;44.588;33.450;2023-06-19T13:07:42;23.50;70.86
76855;DHT22;66343;44.588;33.450;2023-06-19T13:10:13;23.55;70.52
76855;DHT22;66343;44.588;33.450;2023-06-19T13:12:49;23.68;70.48
76855;DHT22;66343;44.588;33.450;2023-06-19T13:15:21;23.76;71.50
76855;DHT22;66343;44.588;33.450;2023-06-19T13:17:51;23.76;69.78
76855;DHT22;66343;44.588;33.450;2023-06-19T13:20:24;23.81;69.01
76855;DHT22;66343;44.588;33.450;2023-06-19T13:22:53;23.80;67.61
76855;DHT22;66343;44.588;33.450;2023-06-19T13:25:25;23.80;66.45
76855;DHT22;66343;44.588;33.450;2023-06-19T13:27:55;23.84;66.84
76855;DHT22;66343;44.588;33.450;2023-06-19T13:30:32;23.85;64.49
76855;DHT22;66343;44.588;33.450;2023-06-19T13:33:07;23.81;64.30
76855;DHT22;66343;44.588;33.450;2023-06-19T13:35:40;23.98;63.48
76855;DHT22;66343;44.588;33.450;2023-06-19T13:38:17;24.08;63.53
76855;DHT22;66343;44.588;33.450;2023-06-19T13:40:50;24.11;63.23
76855;DHT22;66343;44.588;33.450;2023-06-19T13:43:22;24.12;63.04
76855;DHT22;66343;44.588;33.450;2023-06-19T13:45:56;24.12;64.34
76855;DHT22;66343;44.588;33.450;2023-06-19T13:48:33;24.15;63.49
76855;DHT22;66343;44.588;33.450;2023-06-19T13:51:03;24.18;64.75
76855;DHT22;66343;44.588;33.450;2023-06-19T13:53:40;24.26;64.29
76855;DHT22;66343;44.588;33.450;2023-06-19T13:56:17;24.32;62.56
76855;DHT22;66343;44.588;33.450;2023-06-19T13:58:52;24.39;62.75
76855;DHT22;66343;44.588;33.450;2023-06-19T14:01:24;24.41;62.68
76855;DHT22;66343;44.588;33.450;2023-06-19T14:03:59;24.44;62.40
76855;DHT22;66343;44.588;33.450;2023-06-19T14:06:37;24.42;63.24
76855;DHT22;66343;44.588;33.450;2023-06-19T14:09:08;24.56;64.76
76855;DHT22;66343;44.588;33.450;2023-06-19T14:11:38;24.57;64.27
76855;DHT22;66343;44.588;33.450;2023-06-19T14:14:08;24.63;63.85
76855;DHT22;66343;44.588;33.450;2023-06-19T14:16:42;24.63;63.24
76855;DHT22;66343;44.588;33.450;2023-06-19T14:19:16;24.61;63.90
76855;DHT22;66343;44.588;33.450;2023-06-19T14:21:48;24.58;64.24
76855;DHT22;66343;44.588;33.450;2023-06-19T14:24:21;24.54;63.97
76855;DHT22;66343;44.588;33.450;2023-06-19T14:26:52;24.46;64.19
76855;DHT22;66343;44.588;33.450;2023-06-19T14:29:22;24.40;65.04
76855;DHT22;66343;44.588;33.450;2023-06-19T14:31:52;24.43;65.30
76855;DHT22;66343;44.588;33.450;2023-06-19T14:34:24;24.43;65.46
76855;DHT22;66343;44.588;33.450;2023-06-19T14:36:54;24.47;65.73
76855;DHT22;66343;44.588;33.450;2023-06-19T14:39:27;24.46;65.54
76855;DHT22;66343;44.588;33.450;2023-06-19T14:41:59;24.53;66.49
76855;DHT22;66343;44.588;33.450;2023-06-19T14:44:30;24.50;66.46
76855;DHT22;66343;44.588;33.450;2023-06-19T14:47:02;24.49;66.91
76855;DHT22;66343;44.588;33.450;2023-06-19T14:49:34;24.50;66.71
76855;DHT22;66343;44.588;33.450;2023-06-19T14:52:06;24.60;67.52
76855;DHT22;66343;44.588;33.450;2023-06-19T14:54:36;24.59;67.08
76855;DHT22;66343;44.588;33.450;2023-06-19T14:57:11;24.60;67.26
76855;DHT22;66343;44.588;33.450;2023-06-19T14:59:40;24.71;66.31
76855;DHT22;66343;44.588;33.450;2023-06-19T15:02:13;24.84;65.96
76855;DHT22;66343;44.588;33.450;2023-06-19T15:04:42;24.94;64.94
76855;DHT22;66343;44.588;33.450;2023-06-19T15:07:35;25.06;64.60
76855;DHT22;66343;44.588;33.450;2023-06-19T15:10:11;25.17;64.11
76855;DHT22;66343;44.588;33.450;2023-06-19T15:12:41;25.27;63.83
76855;DHT22;66343;44.588;33.450;2023-06-19T15:15:14;25.35;64.43
76855;DHT22;66343;44.588;33.450;2023-06-19T15:17:48;25.47;64.01
76855;DHT22;66343;44.588;33.450;2023-06-19T15:20:18;25.49;63.82
76855;DHT22;66343;44.588;33.450;2023-06-19T15:22:52;25.53;63.04
76855;DHT22;66343;44.588;33.450;2023-06-19T15:25:22;25.51;63.27
76855;DHT22;66343;44.588;33.450;2023-06-19T15:27:57;25.45;63.08
76855;DHT22;66343;44.588;33.450;2023-06-19T15:30:29;25.37;65.69
76855;DHT22;66343;44.588;33.450;2023-06-19T15:33:01;25.37;64.36
76855;DHT22;66343;44.588;33.450;2023-06-19T15:35:38;25.32;63.55
76855;DHT22;66343;44.588;33.450;2023-06-19T15:38:11;25.20;63.37
76855;DHT22;66343;44.588;33.450;2023-06-19T15:40:43;25.15;64.00
76855;DHT22;66343;44.588;33.450;2023-06-19T15:43:19;25.04;64.01
76855;DHT22;66343;44.588;33.450;2023-06-19T15:45:53;24.92;64.56
76855;DHT22;66343;44.588;33.450;2023-06-19T15:48:24;24.88;64.56
76855;DHT22;66343;44.588;33.450;2023-06-19T15:50:54;24.79;64.59
76855;DHT22;66343;44.588;33.450;2023-06-19T15:53:26;24.73;64.85
76855;DHT22;66343;44.588;33.450;2023-06-19T15:56:07;24.63;65.06
76855;DHT22;66343;44.588;33.450;2023-06-19T15:58:36;24.59;65.48
76855;DHT22;66343;44.588;33.450;2023-06-19T16:01:12;24.50;65.50
76855;DHT22;66343;44.588;33.450;2023-06-19T16:03:46;24.51;65.75
76855;DHT22;66343;44.588;33.450;2023-06-19T16:06:19;24.47;65.91
76855;DHT22;66343;44.588;33.450;2023-06-19T16:08:49;24.41;65.90
76855;DHT22;66343;44.588;33.450;2023-06-19T16:11:24;24.42;66.45
76855;DHT22;66343;44.588;33.450;2023-06-19T16:13:59;24.39;66.43
76855;DHT22;66343;44.588;33.450;2023-06-19T16:16:32;24.40;67.34
76855;DHT22;66343;44.588;33.450;2023-06-19T16:19:06;24.39;66.67
76855;DHT22;66343;44.588;33.450;2023-06-19T16:21:36;24.36;66.64
76855;DHT22;66343;44.588;33.450;2023-06-19T16:24:06;24.38;66.99
76855;DHT22;66343;44.588;33.450;2023-06-19T16:26:39;24.40;67.27
76855;DHT22;66343;44.588;33.450;2023-06-19T16:29:13;24.44;67.46
76855;DHT22;66343;44.588;33.450;2023-06-19T16:31:45;24.44;66.77
76855;DHT22;66343;44.588;33.450;2023-06-19T16:34:30;24.41;67.03
76855;DHT22;66343;44.588;33.450;2023-06-19T16:37:02;24.30;66.85
76855;DHT22;66343;44.588;33.450;2023-06-19T16:39:32;24.30;67.14
76855;DHT22;66343;44.588;33.450;2023-06-19T16:42:05;24.28;67.26
76855;DHT22;66343;44.588;33.450;2023-06-19T16:44:38;24.26;67.78
76855;DHT22;66343;44.588;33.450;2023-06-19T16:47:10;24.25;67.88
76855;DHT22;66343;44.588;33.450;2023-06-19T16:49:42;24.27;67.67
76855;DHT22;66343;44.588;33.450;2023-06-19T16:52:15;24.23;67.88
76855;DHT22;66343;44.588;33.450;2023-06-19T16:54:45;24.23;67.77
76855;DHT22;66343;44.588;33.450;2023-06-19T16:57:15;24.16;68.12
76855;DHT22;66343;44.588;33.450;2023-06-19T16:59:47;24.08;68.58
76855;DHT22;66343;44.588;33.450;2023-06-19T17:02:23;24.04;68.49
76855;DHT22;66343;44.588;33.450;2023-06-19T17:04:53;24.03;68.64
76855;DHT22;66343;44.588;33.450;2023-06-19T17:07:26;23.90;69.26
76855;DHT22;66343;44.588;33.450;2023-06-19T17:09:59;23.79;69.31
76855;DHT22;66343;44.588;33.450;2023-06-19T17:12:34;23.70;69.90
76855;DHT22;66343;44.588;33.450;2023-06-19T17:15:06;23.67;69.90
76855;DHT22;66343;44.588;33.450;2023-06-19T17:17:41;23.64;70.10
76855;DHT22;66343;44.588;33.450;2023-06-19T17:20:15;23.65;69.72
76855;DHT22;66343;44.588;33.450;2023-06-19T17:22:46;23.66;69.46
76855;DHT22;66343;44.588;33.450;2023-06-19T17:25:18;23.64;69.44
76855;DHT22;66343;44.588;33.450;2023-06-19T17:27:51;23.64;69.48
76855;DHT22;66343;44.588;33.450;2023-06-19T17:30:21;23.59;69.48
76855;DHT22;66343;44.588;33.450;2023-06-19T17:32:54;23.59;69.69
76855;DHT22;66343;44.588;33.450;2023-06-19T17:35:27;23.59;69.79
76855;DHT22;66343;44.588;33.450;2023-06-19T17:37:59;23.57;70.32
76855;DHT22;66343;44.588;33.450;2023-06-19T17:40:35;23.51;70.62
76855;DHT22;66343;44.588;33.450;2023-06-19T17:43:05;23.41;70.90
76855;DHT22;66343;44.588;33.450;2023-06-19T17:45:38;23.32;71.52
76855;DHT22;66343;44.588;33.450;2023-06-19T17:48:07;23.25;71.63
76855;DHT22;66343;44.588;33.450;2023-06-19T17:50:43;23.27;71.48
76855;DHT22;66343;44.588;33.450;2023-06-19T17:53:13;23.25;71.51
76855;DHT22;66343;44.588;33.450;2023-06-19T17:55:42;23.29;71.30
76855;DHT22;66343;44.588;33.450;2023-06-19T17:58:15;23.28;71.14
76855;DHT22;66343;44.588;33.450;2023-06-19T18:00:47;23.28;71.25
76855;DHT22;66343;44.588;33.450;2023-06-19T18:03:19;23.29;71.35
76855;DHT22;66343;44.588;33.450;2023-06-19T18:05:52;23.28;70.82
76855;DHT22;66343;44.588;33.450;2023-06-19T18:08:28;23.25;71.05
76855;DHT22;66343;44.588;33.450;2023-06-19T18:11:17;23.25;71.03
76855;DHT22;66343;44.588;33.450;2023-06-19T18:13:53;23.24;71.13
76855;DHT22;66343;44.588;33.450;2023-06-19T18:16:25;23.24;70.70
76855;DHT22;66343;44.588;33.450;2023-06-19T18:18:57;23.26;70.90
76855;DHT22;66343;44.588;33.450;2023-06-19T18:21:30;23.22;71.05
76855;DHT22;66343;44.588;33.450;2023-06-19T18:24:00;23.22;71.10
76855;DHT22;66343;44.588;33.450;2023-06-19T18:26:38;23.20;70.95
76855;DHT22;66343;44.588;33.450;2023-06-19T18:29:11;23.20;70.87
76855;DHT22;66343;44.588;33.450;2023-06-19T18:31:41;23.22;70.64
76855;DHT22;66343;44.588;33.450;2023-06-19T18:34:16;23.22;70.67
76855;DHT22;66343;44.588;33.450;2023-06-19T18:36:46;23.21;70.72
76855;DHT22;66343;44.588;33.450;2023-06-19T18:39:23;23.17;70.86
76855;DHT22;66343;44.588;33.450;2023-06-19T18:41:55;23.15;70.76
76855;DHT22;66343;44.588;33.450;2023-06-19T18:44:25;23.12;70.81
76855;DHT22;66343;44.588;33.450;2023-06-19T18:46:58;23.10;70.97
76855;DHT22;66343;44.588;33.450;2023-06-19T18:49:30;23.08;70.96
76855;DHT22;66343;44.588;33.450;2023-06-19T18:52:03;23.02;71.17
76855;DHT22;66343;44.588;33.450;2023-06-19T18:54:33;22.98;71.27
76855;DHT22;66343;44.588;33.450;2023-06-19T18:57:06;22.95;71.61
76855;DHT22;66343;44.588;33.450;2023-06-19T18:59:38;22.88;71.89
76855;DHT22;66343;44.588;33.450;2023-06-19T19:02:08;22.82;71.72
76855;DHT22;66343;44.588;33.450;2023-06-19T19:04:45;22.78;72.47
76855;DHT22;66343;44.588;33.450;2023-06-19T19:07:17;22.75;72.40
76855;DHT22;66343;44.588;33.450;2023-06-19T19:09:55;22.71;72.43
76855;DHT22;66343;44.588;33.450;2023-06-19T19:12:31;22.72;72.19
76855;DHT22;66343;44.588;33.450;2023-06-19T19:15:01;22.68;72.39
76855;DHT22;66343;44.588;33.450;2023-06-19T19:17:32;22.67;73.31
76855;DHT22;66343;44.588;33.450;2023-06-19T19:20:02;22.67;73.04
76855;DHT22;66343;44.588;33.450;2023-06-19T19:22:38;22.65;73.40
76855;DHT22;66343;44.588;33.450;2023-06-19T19:25:08;22.58;73.59
76855;DHT22;66343;44.588;33.450;2023-06-19T19:27:38;22.53;73.77
76855;DHT22;66343;44.588;33.450;2023-06-19T19:30:12;22.51;73.24
76855;DHT22;66343;44.588;33.450;2023-06-19T19:32:48;22.55;73.03
76855;DHT22;66343;44.588;33.450;2023-06-19T19:35:21;22.60;72.60
76855;DHT22;66343;44.588;33.450;2023-06-19T19:38:16;22.61;72.80
76855;DHT22;66343;44.588;33.450;2023-06-19T19:40:50;22.61;72.88
76855;DHT22;66343;44.588;33.450;2023-06-19T19:43:19;22.61;73.12
76855;DHT22;66343;44.588;33.450;2023-06-19T19:45:51;22.60;73.37
76855;DHT22;66343;44.588;33.450;2023-06-19T19:48:26;22.54;73.62
76855;DHT22;66343;44.588;33.450;2023-06-19T19:50:58;22.53;73.48
76855;DHT22;66343;44.588;33.450;2023-06-19T19:53:37;22.51;73.86
76855;DHT22;66343;44.588;33.450;2023-06-19T19:56:09;22.49;73.82
76855;DHT22;66343;44.588;33.450;2023-06-19T19:58:41;22.49;73.68
76855;DHT22;66343;44.588;33.450;2023-06-19T20:01:18;22.44;73.90
76855;DHT22;66343;44.588;33.450;2023-06-19T20:03:48;22.43;73.98
76855;DHT22;66343;44.588;33.450;2023-06-19T20:06:20;22.41;74.28
76855;DHT22;66343;44.588;33.450;2023-06-19T20:08:51;22.35;74.53
76855;DHT22;66343;44.588;33.450;2023-06-19T20:11:20;22.31;74.83
76855;DHT22;66343;44.588;33.450;2023-06-19T20:13:56;22.28;75.34
76855;DHT22;66343;44.588;33.450;2023-06-19T20:16:26;22.27;75.67
76855;DHT22;66343;44.588;33.450;2023-06-19T20:18:59;22.29;76.57
76855;DHT22;66343;44.588;33.450;2023-06-19T20:21:28;22.31;77.07
76855;DHT22;66343;44.588;33.450;2023-06-19T20:24:07;22.34;76.67
76855;DHT22;66343;44.588;33.450;2023-06-19T20:26:39;22.31;77.18
76855;DHT22;66343;44.588;33.450;2023-06-19T20:29:09;22.23;76.88
76855;DHT22;66343;44.588;33.450;2023-06-19T20:31:41;22.23;76.99
76855;DHT22;66343;44.588;33.450;2023-06-19T20:34:11;22.26;76.95
76855;DHT22;66343;44.588;33.450;2023-06-19T20:36:43;22.25;76.97
76855;DHT22;66343;44.588;33.450;2023-06-19T20:39:13;22.25;77.23
76855;DHT22;66343;44.588;33.450;2023-06-19T20:41:44;22.18;77.58
76855;DHT22;66343;44.588;33.450;2023-06-19T20:44:20;22.18;77.12
76855;DHT22;66343;44.588;33.450;2023-06-19T20:46:57;22.20;76.72
76855;DHT22;66343;44.588;33.450;2023-06-19T20:49:29;22.17;76.76
76855;DHT22;66343;44.588;33.450;2023-06-19T20:52:04;22.13;76.60
76855;DHT22;66343;44.588;33.450;2023-06-19T20:54:38;22.11;76.63
76855;DHT22;66343;44.588;33.450;2023-06-19T20:57:09;22.13;76.81
76855;DHT22;66343;44.588;33.450;2023-06-19T20:59:42;22.11;76.88